Sierra Nevada Aquatic Research Lab (SNARL) Reserve, California Weather observations

Data are for 10 minute period ending at time listed.
 Day   Time   Solar   Ave.   Ave.  Ave.  Vector  Max.   Baro.   Total    
  of    of     Rad.   Air    Rel.  Wind   Wind   Wind  Press.  Precip.   
Year   Day            Temp.  Hum.  Speed  Dir.   Gust                    
2017   (PST)  Kw/m2    F      %     mph   deg.    mph    mb.     in.     
-------------------------------------------------------------------------
 175   22:30   0.00   53.4    50    4.6   221     7.2   790.2    0.00 
 175   22:40   0.00   54.5    49    5.6   229     7.2   790.0    0.00 
 175   22:50   0.00   57.0    45    8.9   210    15.6   789.9    0.00 
 175   23:00   0.00   61.3    38   10.7   206    17.2   789.8    0.00 
 175   23:10   0.00   59.8    42    6.5   301    11.5   789.9    0.00 
 175   23:20   0.00   60.4    39    5.2   275    11.6   789.8    0.00 
 175   23:30   0.00   59.2    41    3.0   308     5.6   789.6    0.00 
 175   23:40   0.00   58.3    42    5.8   327     9.6   789.7    0.00 
 175   23:50   0.00   56.8    45    3.4    18     7.0   789.7    0.00 
 176    0:00   0.00   54.0    50    2.4    72     4.9   789.7    0.00 
 176    0:10   0.00   52.4    52    0.1   159     0.9   789.6    0.00 
 176    0:20   0.00   50.5    56    0.8   230     4.0   789.6    0.00 
 176    0:30   0.00   49.4    57    1.3   152     3.7   789.8    0.00 
 176    0:40   0.00   47.4    59    4.4   217     6.8   789.7    0.00 
 176    0:50   0.00   48.4    56    5.0   238     8.4   789.7    0.00 
 176    1:00   0.00   49.5    56    2.0    26     4.4   789.6    0.00 
 176    1:10   0.00   48.9    57    1.0    97     3.7   789.6    0.00 
 176    1:20   0.00   50.0    56    1.0   148     3.4   789.6    0.00 
 176    1:30   0.00   49.1    58    0.9   186     2.9   789.5    0.00 
 176    1:40   0.00   47.3    64    2.1   306     4.5   789.4    0.00 
 176    1:50   0.00   46.5    62    2.8    81     4.7   789.4    0.00 
 176    2:00   0.00   48.1    59    2.0    55     4.2   789.3    0.00 
 176    2:10   0.00   46.6    62    1.8   204     3.8   789.4    0.00 
 176    2:20   0.00   46.2    64    1.1   166     2.4   789.4    0.00 
 176    2:30   0.00   45.4    68    1.1   280     3.1   789.4    0.00 
 176    2:40   0.00   44.5    69    1.8   297     3.7   789.3    0.00 
 176    2:50   0.00   43.6    71    2.3   308     4.2   789.3    0.00 
 176    3:00   0.00   43.3    71    1.8   309     3.6   789.3    0.00 
 176    3:10   0.00   43.9    70    1.8   306     5.0   789.4    0.00 
 176    3:20   0.00   45.9    65    2.5   302     4.9   789.4    0.00 
 176    3:30   0.00   45.9    64    2.2   292     5.6   789.4    0.00 
 176    3:40   0.00   43.7    70    0.1   272     1.0   789.5    0.00 
 176    3:50   0.00   42.8    70    1.7   262     3.0   789.5    0.00 
 176    4:00   0.00   42.6    75    1.1   315     3.1   789.5    0.00 
 176    4:10   0.00   41.5    74    1.3   314     2.9   789.6    0.00 
 176    4:20   0.00   41.3    73    2.2   165     4.1   789.7    0.00 
 176    4:30   0.00   42.2    72    2.0   262     3.3   789.7    0.00 
 176    4:40   0.00   43.3    69    1.5   219     2.3   789.8    0.00 
 176    4:50   0.00   42.2    72    0.1   183     1.2   789.9    0.00 
 176    5:00   0.01   42.0    71    0.8   249     2.8   790.0    0.00 
 176    5:10   0.01   42.6    70    2.7   242     4.5   790.0    0.00 
 176    5:20   0.02   44.5    70    3.3   238     5.8   790.0    0.00 
 176    5:30   0.03   47.8    64    3.4   328     5.6   790.0    0.00 
 176    5:40   0.09   48.2    64    2.9   324     5.8   790.1    0.00 
 176    5:50   0.16   49.4    64    2.0   316     4.4   790.1    0.00 
 176    6:00   0.19   52.4    59    1.9   308     5.4   790.1    0.00 
 176    6:10   0.22   56.8    52    0.6    89     2.1   790.0    0.00 
 176    6:20   0.26   59.8    49    0.8    95     2.4   790.0    0.00 
 176    6:30   0.29   61.5    49    1.7    68     3.9   790.0    0.00 
 176    6:40   0.32   62.5    48    1.5    62     3.4   790.0    0.00 
 176    6:50   0.36   62.8    47    2.3    61     4.6   789.9    0.00 
 176    7:00   0.40   63.0    47    2.4    58     4.2   789.8    0.00 
 176    7:10   0.43   63.2    48    2.0    62     4.2   789.8    0.00 
 176    7:20   0.47   65.1    47    2.0    54     4.2   789.9    0.00 
 176    7:30   0.50   66.0    46    1.3    66     3.2   789.9    0.00 
 176    7:40   0.53   68.3    41    1.1    54     3.1   789.9    0.00 
 176    7:50   0.57   69.9    40    1.6    75     3.4   790.0    0.00 
 176    8:00   0.60   70.7    41    2.5    61     5.1   790.0    0.00 
 176    8:10   0.63   70.9    41    3.1    59     6.7   790.1    0.00 
 176    8:20   0.66   71.7    39    2.4    57     5.1   790.1    0.00 
 176    8:30   0.69   73.1    37    2.5    55     4.8   790.1    0.00 
 176    8:40   0.72   74.1    35    2.9    51     5.0   790.1    0.00 
 176    8:50   0.75   75.7    33    2.9    62     5.4   790.1    0.00 
 176    9:00   0.73   76.7    31    2.7    67     5.0   790.0    0.00 
 176    9:10   0.80   77.2    32    3.1    63     6.1   790.1    0.00 
 176    9:20   0.83   77.4    30    3.7    65     6.5   790.1    0.00 
 176    9:30   0.85   78.2    30    2.8    62     6.0   790.1    0.00 
 176    9:40   0.88   78.8    28    3.7    63     6.1   790.1    0.00 
 176    9:50   0.89   79.2    27    2.9    68     6.8   790.1    0.00 
 176   10:00   0.91   80.5    24    2.1    65     6.7   790.1    0.00 
 176   10:10   0.93   81.1    21    3.4   239    10.9   790.1    0.00 
 176   10:20   0.95   81.5    21    3.1   127     8.9   790.2    0.00 
 176   10:30   0.96   81.7    18    8.4   210    17.8   790.2    0.00 
 176   10:40   0.98   81.5    18    9.5   239    17.8   790.2    0.00 
 176   10:50   0.99   81.9    17   11.1   230    20.5   790.2    0.00 
 176   11:00   1.00   82.3    16   12.2   241    21.9   790.1    0.00 
 176   11:10   1.01   81.3    16   14.1   228    21.0   790.1    0.00 
 176   11:20   1.01   81.9    17   14.7   242    22.2   790.0    0.00 
 176   11:30   1.02   82.1    17   14.0   240    20.8   790.0    0.00 
 176   11:40   1.02   82.3    18   14.0   240    21.5   789.9    0.00 
 176   11:50   1.02   82.4    17   12.6   251    22.1   790.0    0.00 
 176   12:00   1.03   82.9    18   13.5   236    22.6   790.0    0.00 
 176   12:10   1.03   82.3    18   13.8   246    21.8   790.0    0.00 
 176   12:20   1.02   82.9    18   12.0   233    20.4   790.0    0.00 
 176   12:30   1.02   82.7    18   10.3   224    20.8   790.0    0.00 
 176   12:40   1.01   82.7    19    8.6   241    15.3   789.9    0.00 
 176   12:50   1.00   82.8    19    9.7   243    18.2   789.8    0.00 
 176   13:00   0.99   82.7    20   11.0   234    19.4   789.7    0.00 
 176   13:10   0.98   83.0    20   11.0   223    17.4   789.7    0.00 
 176   13:20   0.98   83.3    20   13.4   234    21.5   789.7    0.00 
 176   13:30   0.96   83.3    21   12.3   226    20.1   789.7    0.00 
 176   13:40   0.95   82.4    21   14.9   235    23.3   789.6    0.00 
 176   13:50   0.94   82.6    22   14.3   220    24.9   789.7    0.00 
 176   14:00   0.93   82.3    22   12.8   239    22.5   789.7    0.00 
 176   14:10   0.90   82.7    22   13.0   215    21.0   789.7    0.00 
 176   14:20   0.88   82.0    22   15.0   226    22.3   789.7    0.00 
 176   14:30   0.85   81.8    22   13.8   239    26.0   789.6    0.00 
 176   14:40   0.83   81.6    23   11.9   230    23.4   789.6    0.00 
 176   14:50   0.81   81.9    23   12.7   224    22.1   789.4    0.00 
 176   15:00   0.78   81.2    24   14.8   234    23.0   789.3    0.00 
 176   15:10   0.76   81.2    24   15.0   235    29.6   789.2    0.00 
 176   15:20   0.72   80.8    25   14.2   234    23.6   789.2    0.00 
 176   15:30   0.70   80.8    26   14.6   219    22.1   789.1    0.00 
 176   15:40   0.66   80.7    26   13.5   227    22.9   789.0    0.00 
 176   15:50   0.64   80.5    26   12.5   226    24.1   788.9    0.00 
 176   16:00   0.61   80.4    27   13.3   223    21.9   788.8    0.00 
 176   16:10   0.57   79.8    28   14.4   225    24.8   788.8    0.00 
 176   16:20   0.54   79.3    29   15.9   229    32.3   788.8    0.00 
 176   16:30   0.51   79.2    29   15.6   218    26.2   788.7    0.00 
 176   16:40   0.47   79.1    30   16.2   220    24.6   788.7    0.00 
 176   16:50   0.44   78.6    30   18.1   221    25.4   788.7    0.00 
 176   17:00   0.40   78.1    31   15.2   228    25.7   788.7    0.00 
 176   17:10   0.36   77.9    32   15.8   227    23.8   788.7    0.00 
 176   17:20   0.33   77.7    32   15.1   224    28.2   788.6    0.00 
 176   17:30   0.29   77.1    32   18.0   222    25.7   788.6    0.00 
 176   17:40   0.26   76.7    33   16.4   223    27.4   788.6    0.00 
 176   17:50   0.22   76.1    34   15.9   219    29.1   788.6    0.00 
 176   18:00   0.19   75.8    34   18.2   224    30.2   788.6    0.00 
 176   18:10   0.16   75.1    35   17.4   214    26.2   788.6    0.00 
 176   18:20   0.13   74.7    35   18.2   215    30.2   788.6    0.00 
 176   18:30   0.10   74.1    35   18.2   216    27.8   788.6    0.00 
 176   18:40   0.07   73.5    35   19.3   215    31.2   788.6    0.00 
 176   18:50   0.05   73.0    36   19.6   215    26.8   788.7    0.00 
 176   19:00   0.02   72.1    37   19.6   218    27.2   788.6    0.00 
 176   19:10   0.01   71.6    37   16.8   212    25.6   788.7    0.00 
 176   19:20   0.00   71.3    37   17.5   211    27.2   788.8    0.00 
 176   19:30   0.00   70.9    38   18.1   217    25.0   788.8    0.00 
 176   19:40   0.00   70.7    38   15.8   221    24.0   788.9    0.00 
 176   19:50   0.00   70.2    38   17.6   218    25.5   788.8    0.00 
 176   20:00   0.00   69.7    39   16.9   208    25.1   788.9    0.00 
 176   20:10   0.00   69.4    39   16.4   214    25.1   788.9    0.00 
 176   20:20   0.00   69.3    39   15.0   218    22.6   788.9    0.00 
 176   20:30   0.00   69.1    39   13.0   211    20.0   788.9    0.00 
 176   20:40   0.00   68.8    39   11.4   212    17.2   789.0    0.00 
 176   20:50   0.00   68.5    39    7.7   208    14.8   789.0    0.00 
 176   21:00   0.00   68.2    39    6.1   203    11.2   789.1    0.00 
 176   21:10   0.00   67.3    41    3.7   328     7.0   789.1    0.00 
 176   21:20   0.00   65.7    44    2.9   335     5.5   789.1    0.00 
 176   21:30   0.00   63.3    47    2.9   149     6.6   789.1    0.00 
 176   21:40   0.00   60.3    52    2.8   106     5.3   789.1    0.00 
 176   21:50   0.00   59.9    53    2.8   110     4.6   789.1    0.00 
 176   22:00   0.00   59.2    55    2.7    94     4.6   789.0    0.00 
 176   22:10   0.00   57.9    56    1.1   176     3.1   789.0    0.00 
 176   22:20   0.00   55.8    59    2.4   234     4.2   788.9    0.00 

Return to SNARL Reserve graphs page.


Western Regional Climate Center,wrcc@dri.edu